Wooster, Ohio
Current Conditions -  °F | °C
As of 1:51 PM on Sunday 23 Nov 2014 (Local Time) from KCAK Reporting Station
Overcast Overcast  
Wind Chill: 59°   Ceiling: 3700
Heat Index: 59°   Visibility: 10mi
Dew Point: 42°   Wind: 12mph
Humidity: 53%   Direction: 150°SSE
Pressure: 29.89"   Gusts: NA
Location:  40.81°N, 81.93°W
Report Text: KCAK 231851Z 15010KT 10SM BKN037 OVC090 15/06 A2989 RMK AO2 SLP123 T01500056 $
Loading
Personal Weather Stations






























Interactive Weather Map New forecast layout! Learn more

10-Day Weather Forecast

Advertisements
Track Severe Weather on mobile